createdAt,value
2019-02-25T00:01:22.474Z,24.43
2019-02-25T00:03:50.521Z,25.17
2019-02-25T00:06:18.506Z,27.10
2019-02-25T00:08:46.535Z,25.47
2019-02-25T00:11:14.565Z,25.70
2019-02-25T00:13:42.646Z,28.90
2019-02-25T00:16:11.805Z,22.10
2019-02-25T00:18:39.851Z,22.47
2019-02-25T00:21:07.929Z,29.90
2019-02-25T00:23:36.382Z,23.23
2019-02-25T00:26:04.478Z,24.87
2019-02-25T00:28:32.592Z,24.53
2019-02-25T00:31:01.024Z,24.83
2019-02-25T00:33:30.023Z,26.73
2019-02-25T00:35:58.640Z,25.53
2019-02-25T00:38:26.682Z,26.33
2019-02-25T00:40:54.999Z,25.47
2019-02-25T00:43:23.574Z,24.40
2019-02-25T00:45:51.678Z,24.27
2019-02-25T00:48:20.212Z,23.73
2019-02-25T00:50:48.633Z,22.40
2019-02-25T00:53:16.605Z,24.60
2019-02-25T00:55:44.655Z,22.27
2019-02-25T00:58:12.751Z,23.50
2019-02-25T01:00:43.015Z,21.40
2019-02-25T01:03:11.007Z,22.43
2019-02-25T01:05:39.060Z,21.57
2019-02-25T01:08:07.838Z,17.37
2019-02-25T01:10:36.161Z,20.43
2019-02-25T01:13:06.392Z,21.03
2019-02-25T01:15:34.412Z,18.97
2019-02-25T01:18:02.526Z,21.13
2019-02-25T01:20:31.653Z,24.47
2019-02-25T01:22:59.744Z,20.53
2019-02-25T01:25:28.096Z,19.93
2019-02-25T01:27:56.118Z,24.77
2019-02-25T01:30:25.164Z,23.83
2019-02-25T01:32:53.278Z,21.07
2019-02-25T01:35:21.364Z,18.63
2019-02-25T01:37:49.418Z,16.33
2019-02-25T01:40:17.445Z,19.30
2019-02-25T01:42:45.470Z,19.50
2019-02-25T01:45:13.557Z,18.47
2019-02-25T01:47:41.529Z,20.23
2019-02-25T01:50:10.115Z,22.27
2019-02-25T01:52:40.206Z,25.70
2019-02-25T01:55:08.819Z,21.63
2019-02-25T01:57:36.872Z,21.37
2019-02-25T02:00:05.802Z,23.43
2019-02-25T02:02:34.318Z,19.10
2019-02-25T02:05:02.415Z,19.53
2019-02-25T02:07:30.392Z,19.83
2019-02-25T02:09:58.449Z,20.30
2019-02-25T02:12:26.511Z,19.73
2019-02-25T02:14:54.573Z,16.80
2019-02-25T02:17:23.057Z,18.67
2019-02-25T02:19:51.151Z,18.93
2019-02-25T02:22:19.216Z,21.53
2019-02-25T02:24:47.248Z,18.57
2019-02-25T02:27:15.300Z,22.00
2019-02-25T02:29:43.410Z,18.20
2019-02-25T02:32:11.423Z,19.27
2019-02-25T02:34:39.420Z,20.60
2019-02-25T02:37:07.505Z,18.80
2019-02-25T02:39:35.548Z,21.20
2019-02-25T02:42:10.406Z,19.93
2019-02-25T02:44:38.465Z,17.87
2019-02-25T02:47:22.176Z,18.93
2019-02-25T02:49:51.402Z,19.37
2019-02-25T02:52:19.530Z,19.60
2019-02-25T02:54:47.588Z,19.30
2019-02-25T02:57:15.588Z,22.07
2019-02-25T02:59:43.595Z,18.33
2019-02-25T03:02:11.650Z,20.53
2019-02-25T03:04:39.696Z,20.73
2019-02-25T03:07:07.736Z,18.87
2019-02-25T03:09:35.726Z,24.07
2019-02-25T03:12:03.778Z,18.47
2019-02-25T03:14:33.736Z,21.57
2019-02-25T03:17:01.709Z,17.97
2019-02-25T03:19:29.812Z,20.37
2019-02-25T03:21:57.839Z,19.40
2019-02-25T03:24:25.851Z,21.43
2019-02-25T03:26:54.019Z,20.50
2019-02-25T03:29:22.093Z,20.90
2019-02-25T03:31:50.133Z,20.60
2019-02-25T03:34:18.138Z,20.70
2019-02-25T03:36:46.173Z,20.80
2019-02-25T03:39:14.289Z,23.57
2019-02-25T03:41:42.292Z,22.67
2019-02-25T03:44:10.275Z,25.83
2019-02-25T03:46:38.252Z,25.97
2019-02-25T03:49:06.410Z,22.40
2019-02-25T03:51:34.405Z,23.80
2019-02-25T03:54:03.101Z,24.30
2019-02-25T03:56:31.769Z,21.43
2019-02-25T03:58:59.952Z,19.93
2019-02-25T04:01:27.973Z,21.77
2019-02-25T04:03:55.969Z,21.77
2019-02-25T04:06:24.697Z,22.83
2019-02-25T04:08:52.698Z,22.53
2019-02-25T04:11:20.815Z,21.27
2019-02-25T04:13:48.920Z,21.47
2019-02-25T04:16:16.980Z,22.97
2019-02-25T04:18:45.253Z,22.03
2019-02-25T04:21:13.350Z,21.73
2019-02-25T04:23:41.479Z,23.70
2019-02-25T04:26:11.884Z,22.10
2019-02-25T04:28:39.932Z,22.53
2019-02-25T04:31:08.457Z,19.97
2019-02-25T04:33:36.630Z,20.10
2019-02-25T04:36:04.728Z,20.17
2019-02-25T04:38:32.813Z,18.47
2019-02-25T04:41:00.883Z,21.67
2019-02-25T04:43:28.905Z,21.83
2019-02-25T04:45:57.088Z,20.50
2019-02-25T04:48:25.067Z,23.83
2019-02-25T04:50:53.121Z,25.07
2019-02-25T04:53:21.146Z,24.10
2019-02-25T04:55:50.382Z,23.17
2019-02-25T04:58:18.520Z,20.87
2019-02-25T05:00:46.599Z,23.67
2019-02-25T05:03:14.649Z,25.17
2019-02-25T05:05:42.769Z,20.07
2019-02-25T05:08:13.070Z,19.60
2019-02-25T05:10:41.071Z,18.70
2019-02-25T05:13:09.163Z,22.03
2019-02-25T05:15:37.398Z,22.40
2019-02-25T05:18:05.436Z,20.37
2019-02-25T05:20:34.022Z,17.43
2019-02-25T05:23:02.575Z,18.57
2019-02-25T05:25:37.845Z,23.27
2019-02-25T05:28:06.012Z,20.73
2019-02-25T05:30:34.148Z,19.67
2019-02-25T05:33:02.234Z,19.67
2019-02-25T05:35:30.602Z,21.60
2019-02-25T05:37:59.136Z,20.57
2019-02-25T05:40:27.212Z,21.70
2019-02-25T05:42:55.291Z,22.00
2019-02-25T05:45:23.441Z,18.00
2019-02-25T05:47:54.844Z,22.77
2019-02-25T05:50:23.095Z,18.70
2019-02-25T05:52:51.298Z,19.20
2019-02-25T05:55:20.550Z,19.57
2019-02-25T05:57:48.746Z,19.27
2019-02-25T06:00:19.835Z,23.00
2019-02-25T06:02:47.996Z,20.73
2019-02-25T06:05:16.188Z,21.87
2019-02-25T06:07:44.309Z,21.47
2019-02-25T06:10:12.451Z,19.80
2019-02-25T06:12:40.483Z,20.63
2019-02-25T06:15:09.082Z,21.47
2019-02-25T06:17:46.297Z,19.70
2019-02-25T06:20:16.914Z,20.20
2019-02-25T06:22:44.993Z,19.67
2019-02-25T06:25:13.912Z,22.43
2019-02-25T06:27:42.154Z,21.23
2019-02-25T06:30:11.954Z,22.23
2019-02-25T06:32:40.012Z,26.10
2019-02-25T06:35:08.535Z,22.80
2019-02-25T06:37:36.817Z,24.33
2019-02-25T06:40:05.069Z,19.70
2019-02-25T06:42:33.213Z,20.47
2019-02-25T06:45:01.438Z,20.87
2019-02-25T06:47:29.594Z,22.43
2019-02-25T06:49:57.665Z,26.30
2019-02-25T06:52:25.805Z,20.40
2019-02-25T06:54:53.918Z,20.60
2019-02-25T06:57:22.008Z,22.27
2019-02-25T06:59:50.114Z,20.40
2019-02-25T07:02:18.151Z,21.30
2019-02-25T07:04:55.004Z,25.00
2019-02-25T07:07:31.857Z,22.67
2019-02-25T07:10:14.857Z,20.87
2019-02-25T07:12:55.880Z,23.70
2019-02-25T07:15:46.258Z,19.90
2019-02-25T07:18:32.242Z,21.47
2019-02-25T07:21:25.308Z,19.80
2019-02-25T07:24:15.575Z,18.40
2019-02-25T07:27:03.186Z,20.97
2019-02-25T07:29:49.090Z,19.67
2019-02-25T07:32:27.399Z,21.07
2019-02-25T07:35:00.936Z,19.83
2019-02-25T07:37:46.842Z,21.13
2019-02-25T07:40:32.464Z,19.83
2019-02-25T07:43:18.441Z,21.67
2019-02-25T07:46:08.723Z,22.33
2019-02-25T07:48:42.509Z,19.50
2019-02-25T07:51:17.883Z,21.50
2019-02-25T07:53:54.827Z,21.27
2019-02-25T07:56:40.219Z,20.77
2019-02-25T07:59:17.447Z,21.07
2019-02-25T08:01:53.583Z,21.30
2019-02-25T08:04:46.392Z,21.50
2019-02-25T08:07:32.350Z,20.73
2019-02-25T08:10:18.604Z,21.63
2019-02-25T08:13:04.519Z,22.30
2019-02-25T08:16:00.824Z,20.23
2019-02-25T08:18:47.861Z,20.23
2019-02-25T08:21:33.557Z,23.37
2019-02-25T08:24:30.887Z,24.13
2019-02-25T08:27:18.163Z,22.53
2019-02-25T08:30:02.940Z,22.10
2019-02-25T08:33:04.758Z,26.40
2019-02-25T08:36:19.648Z,20.60
2019-02-25T08:38:58.145Z,25.10
2019-02-25T08:41:33.996Z,24.00
2019-02-25T08:44:21.040Z,24.50
2019-02-25T08:46:57.274Z,28.77
2019-02-25T08:49:31.967Z,23.63
2019-02-25T08:51:59.974Z,24.80
2019-02-25T08:54:30.254Z,26.37
2019-02-25T08:56:58.821Z,23.77
2019-02-25T08:59:26.899Z,23.07
2019-02-25T09:01:54.923Z,25.07
2019-02-25T09:04:23.012Z,23.73
2019-02-25T09:06:51.051Z,34.60
2019-02-25T09:09:19.052Z,27.03
2019-02-25T09:11:47.125Z,25.47
2019-02-25T09:14:15.259Z,23.03
2019-02-25T09:16:43.357Z,22.87
2019-02-25T09:19:11.383Z,24.80
2019-02-25T09:21:39.448Z,22.40
2019-02-25T09:24:07.599Z,27.10
2019-02-25T09:26:35.654Z,23.40
2019-02-25T09:29:03.752Z,25.60
2019-02-25T09:31:31.794Z,23.93
2019-02-25T09:33:59.821Z,23.57
2019-02-25T09:36:27.844Z,24.17
2019-02-25T09:38:56.719Z,25.67
2019-02-25T09:41:29.947Z,21.67
2019-02-25T09:43:55.145Z,23.10
2019-02-25T09:46:23.931Z,22.17
2019-02-25T09:48:52.056Z,26.80
2019-02-25T09:51:20.110Z,21.00
2019-02-25T09:53:48.229Z,23.90
2019-02-25T09:56:16.337Z,24.87
2019-02-25T09:58:44.427Z,24.53
2019-02-25T10:01:12.491Z,25.87
2019-02-25T10:03:40.498Z,27.13
2019-02-25T10:06:08.673Z,31.83
2019-02-25T10:08:36.660Z,31.13
2019-02-25T10:11:04.776Z,27.27
2019-02-25T10:13:32.865Z,25.60
2019-02-25T10:16:00.943Z,27.13
2019-02-25T10:18:28.945Z,34.47
2019-02-25T10:20:57.016Z,29.67
2019-02-25T10:23:25.050Z,31.40
2019-02-25T10:25:53.194Z,29.37
2019-02-25T10:28:21.347Z,34.03
2019-02-25T10:30:52.832Z,28.67
2019-02-25T10:33:19.189Z,33.63
2019-02-25T10:35:47.207Z,32.60
2019-02-25T10:38:15.306Z,33.60
2019-02-25T10:40:44.952Z,31.93
2019-02-25T10:43:14.061Z,32.07
2019-02-25T10:45:43.388Z,32.57
2019-02-25T10:48:11.770Z,34.43
2019-02-25T10:50:40.921Z,34.70
2019-02-25T10:53:10.829Z,32.90
2019-02-25T10:55:44.535Z,36.97
2019-02-25T10:58:11.327Z,34.60
2019-02-25T11:00:40.012Z,37.60
2019-02-25T11:03:10.557Z,32.37
2019-02-25T11:05:38.776Z,34.23
2019-02-25T11:08:11.638Z,33.67
2019-02-25T11:10:48.560Z,32.57
2019-02-25T11:13:16.800Z,30.43
2019-02-25T11:15:47.819Z,34.17
2019-02-25T11:18:14.552Z,28.67
2019-02-25T11:20:42.624Z,32.63
2019-02-25T11:23:12.852Z,34.50
2019-02-25T11:25:40.308Z,29.63
2019-02-25T11:28:11.242Z,28.07
2019-02-25T11:30:38.038Z,31.47
2019-02-25T11:33:06.050Z,27.27
2019-02-25T11:35:34.303Z,28.13
2019-02-25T11:38:02.474Z,29.77
2019-02-25T11:40:31.266Z,29.20
2019-02-25T11:43:00.293Z,27.00
2019-02-25T11:45:28.396Z,26.17
2019-02-25T11:47:56.745Z,27.23
2019-02-25T11:50:24.765Z,24.67
2019-02-25T11:52:52.833Z,38.43
2019-02-25T11:55:21.947Z,26.17
2019-02-25T11:57:50.191Z,28.03
2019-02-25T12:00:18.895Z,31.27
2019-02-25T12:02:46.907Z,30.17
2019-02-25T12:05:15.529Z,33.83
2019-02-25T12:07:43.631Z,30.73
2019-02-25T12:10:11.642Z,28.77
2019-02-25T12:12:39.665Z,31.37
2019-02-25T12:15:09.957Z,36.67
2019-02-25T12:17:38.037Z,33.17
2019-02-25T12:20:06.274Z,31.93
2019-02-25T12:22:34.262Z,30.57
2019-02-25T12:25:02.286Z,32.03
2019-02-25T12:27:30.284Z,33.80
2019-02-25T12:29:59.045Z,35.30
2019-02-25T12:32:27.079Z,28.83
2019-02-25T12:34:55.174Z,31.97
2019-02-25T12:37:23.251Z,30.10
2019-02-25T12:39:51.499Z,26.37
2019-02-25T12:42:19.491Z,28.23
2019-02-25T12:44:47.576Z,28.77
2019-02-25T12:47:15.598Z,34.93
2019-02-25T12:49:43.730Z,31.90
2019-02-25T12:52:11.694Z,30.00
2019-02-25T12:54:40.157Z,29.57
2019-02-25T12:57:08.241Z,28.57
2019-02-25T12:59:36.315Z,31.67
2019-02-25T13:02:04.721Z,30.57
2019-02-25T13:04:32.728Z,27.90
2019-02-25T13:07:00.739Z,31.13
2019-02-25T13:09:28.950Z,25.63
2019-02-25T13:11:57.003Z,28.03
2019-02-25T13:14:25.046Z,25.60
2019-02-25T13:16:53.108Z,28.07
2019-02-25T13:19:21.097Z,24.73
2019-02-25T13:21:49.138Z,25.83
2019-02-25T13:24:17.226Z,23.27
2019-02-25T13:26:45.692Z,25.40
2019-02-25T13:29:14.779Z,25.83
2019-02-25T13:31:42.793Z,26.00
2019-02-25T13:34:10.829Z,23.93
2019-02-25T13:36:38.890Z,25.50
2019-02-25T13:39:07.539Z,25.93
2019-02-25T13:41:35.910Z,25.87
2019-02-25T13:44:05.448Z,28.87
2019-02-25T13:46:33.446Z,27.10
2019-02-25T13:49:03.798Z,23.57
2019-02-25T13:51:31.941Z,23.87
2019-02-25T13:53:59.989Z,22.40
2019-02-25T13:56:28.366Z,22.77
2019-02-25T13:58:56.457Z,23.67
2019-02-25T14:01:24.434Z,23.30
2019-02-25T14:03:52.672Z,21.53
2019-02-25T14:06:20.674Z,24.70
2019-02-25T14:08:48.745Z,23.30
2019-02-25T14:11:16.952Z,22.90
2019-02-25T14:13:45.249Z,20.23
2019-02-25T14:16:13.441Z,22.33
2019-02-25T14:18:41.720Z,27.53
2019-02-25T14:21:09.723Z,21.40
2019-02-25T14:23:38.234Z,24.03
2019-02-25T14:26:07.468Z,21.60
2019-02-25T14:28:35.519Z,20.10
2019-02-25T14:31:04.665Z,25.33
2019-02-25T14:33:35.533Z,23.20
2019-02-25T14:36:02.648Z,21.33
2019-02-25T14:38:32.290Z,23.67
2019-02-25T14:41:01.899Z,24.20
2019-02-25T14:43:30.162Z,23.50
2019-02-25T14:45:58.948Z,23.17
2019-02-25T14:48:30.227Z,21.70
2019-02-25T14:50:57.766Z,23.40
2019-02-25T14:53:25.809Z,20.53
2019-02-25T14:55:56.007Z,21.60
2019-02-25T14:58:23.828Z,21.60
2019-02-25T15:00:55.975Z,18.93
2019-02-25T15:03:29.012Z,22.60
2019-02-25T15:05:59.130Z,22.10
2019-02-25T15:08:30.655Z,20.97
2019-02-25T15:11:01.895Z,19.67
2019-02-25T15:13:30.363Z,23.60
2019-02-25T15:16:01.273Z,22.53
2019-02-25T15:18:31.149Z,20.47
2019-02-25T15:21:02.069Z,19.33
2019-02-25T15:23:30.483Z,23.47
2019-02-25T15:26:05.029Z,22.33
2019-02-25T15:28:28.262Z,20.40
2019-02-25T15:30:58.253Z,20.47
2019-02-25T15:33:27.178Z,19.40
2019-02-25T15:35:55.254Z,25.07
2019-02-25T15:38:23.922Z,24.30
2019-02-25T15:40:52.159Z,21.20
2019-02-25T15:43:25.153Z,21.53
2019-02-25T15:45:53.228Z,25.80
2019-02-25T15:48:21.816Z,29.53
2019-02-25T15:50:52.964Z,28.03
2019-02-25T15:53:22.459Z,23.17
2019-02-25T15:55:52.687Z,22.57
2019-02-25T15:58:20.664Z,19.40
2019-02-25T16:00:48.708Z,19.23
2019-02-25T16:03:20.548Z,19.50
2019-02-25T16:05:52.352Z,19.03
2019-02-25T16:08:20.954Z,23.97
2019-02-25T16:10:49.445Z,20.27
2019-02-25T16:13:19.328Z,19.07
2019-02-25T16:15:47.382Z,28.03
2019-02-25T16:18:15.452Z,26.70
2019-02-25T16:20:46.109Z,22.17
2019-02-25T16:23:13.361Z,24.20
2019-02-25T16:25:42.689Z,19.47
2019-02-25T16:28:12.544Z,21.13
2019-02-25T16:30:42.439Z,22.23
2019-02-25T16:33:12.629Z,25.67
2019-02-25T16:35:41.185Z,24.37
2019-02-25T16:38:09.770Z,24.43
2019-02-25T16:40:39.632Z,24.97
2019-02-25T16:43:09.736Z,21.70
2019-02-25T16:45:39.514Z,22.57
2019-02-25T16:48:07.353Z,29.03
2019-02-25T16:50:36.724Z,22.57
2019-02-25T16:53:07.899Z,23.43
2019-02-25T16:55:34.773Z,22.80
2019-02-25T16:58:03.694Z,21.10
2019-02-25T17:00:34.648Z,23.97
2019-02-25T17:03:04.286Z,23.27
2019-02-25T17:05:31.917Z,24.37
2019-02-25T17:08:01.295Z,25.67
2019-02-25T17:10:33.721Z,28.30
2019-02-25T17:13:01.445Z,23.03
2019-02-25T17:15:29.588Z,24.27
2019-02-25T17:18:00.341Z,22.87
2019-02-25T17:20:28.626Z,22.47
2019-02-25T17:22:56.821Z,23.53
2019-02-25T17:25:26.827Z,22.27
2019-02-25T17:27:55.132Z,21.33
2019-02-25T17:30:24.063Z,24.73
2019-02-25T17:32:52.400Z,25.77
2019-02-25T17:35:23.134Z,24.33
2019-02-25T17:37:50.684Z,23.00
2019-02-25T17:40:18.857Z,23.97
2019-02-25T17:42:51.128Z,27.90
2019-02-25T17:45:19.197Z,25.47
2019-02-25T17:47:47.218Z,26.63
2019-02-25T17:50:16.474Z,25.07
2019-02-25T17:52:45.173Z,25.67
2019-02-25T17:55:15.294Z,29.63
2019-02-25T17:57:43.261Z,29.13
2019-02-25T18:00:15.150Z,27.93
2019-02-25T18:02:44.950Z,30.90
2019-02-25T18:05:14.205Z,28.63
2019-02-25T18:07:46.372Z,27.67
2019-02-25T18:10:14.609Z,30.62
2019-02-25T18:12:42.653Z,27.37
2019-02-25T18:15:12.045Z,29.00
2019-02-25T18:17:42.735Z,32.80
2019-02-25T18:20:12.567Z,29.90
2019-02-25T18:22:40.589Z,32.67
2019-02-25T18:25:08.852Z,36.63
2019-02-25T18:27:37.448Z,40.07
2019-02-25T18:30:06.741Z,34.63
2019-02-25T18:32:36.965Z,41.03
2019-02-25T18:35:06.460Z,29.30
2019-02-25T18:37:37.561Z,31.35
2019-02-25T18:40:09.109Z,31.30
2019-02-25T18:42:38.606Z,29.20
2019-02-25T18:45:08.628Z,33.43
2019-02-25T18:47:37.538Z,28.27
2019-02-25T18:50:06.446Z,28.23
2019-02-25T18:52:36.240Z,26.67
2019-02-25T18:55:05.049Z,27.30
2019-02-25T18:57:34.160Z,30.53
2019-02-25T19:00:03.973Z,32.30
2019-02-25T19:02:33.312Z,32.47
2019-02-25T19:05:02.700Z,29.13
2019-02-25T19:07:33.504Z,33.67
2019-02-25T19:10:01.297Z,32.50
2019-02-25T19:12:29.432Z,32.03
2019-02-25T19:15:00.582Z,29.13
2019-02-25T19:17:31.880Z,28.27
2019-02-25T19:20:03.946Z,31.53
2019-02-25T19:23:02.335Z,27.97
2019-02-25T19:25:26.290Z,27.93
2019-02-25T19:27:59.388Z,25.97
2019-02-25T19:30:34.366Z,31.70
2019-02-25T19:33:11.342Z,34.77
2019-02-25T19:35:42.985Z,28.47
2019-02-25T19:38:17.619Z,29.23
2019-02-25T19:40:46.583Z,28.43
2019-02-25T19:43:23.975Z,27.63
2019-02-25T19:46:01.636Z,25.83
2019-02-25T19:48:33.594Z,29.93
2019-02-25T19:51:04.266Z,29.03
2019-02-25T19:53:42.974Z,28.20
2019-02-25T19:56:08.084Z,27.80
2019-02-25T19:58:41.063Z,30.97
2019-02-25T20:01:12.248Z,25.57
2019-02-25T20:03:45.679Z,26.20
2019-02-25T20:06:19.170Z,30.60
2019-02-25T20:08:51.002Z,26.80
2019-02-25T20:11:19.708Z,27.87
2019-02-25T20:13:50.979Z,29.97
2019-02-25T20:16:22.885Z,26.50
2019-02-25T20:18:53.801Z,26.37
2019-02-25T20:21:27.213Z,27.43
2019-02-25T20:24:19.496Z,26.80
2019-02-25T20:26:53.983Z,24.57
2019-02-25T20:29:23.995Z,26.60
2019-02-25T20:31:53.539Z,31.33
2019-02-25T20:34:22.990Z,30.00
2019-02-25T20:36:55.394Z,29.00
2019-02-25T20:39:23.922Z,28.67
2019-02-25T20:41:54.252Z,30.30
2019-02-25T20:44:22.259Z,27.00
2019-02-25T20:47:04.102Z,25.37
2019-02-25T20:49:47.354Z,27.57
2019-02-25T20:52:18.196Z,26.80
2019-02-25T20:54:50.441Z,25.57
2019-02-25T20:57:35.886Z,27.20
2019-02-25T21:00:23.137Z,27.27
2019-02-25T21:02:48.512Z,25.20
2019-02-25T21:05:27.575Z,27.27
2019-02-25T21:07:57.936Z,28.77
2019-02-25T21:10:34.961Z,27.17
2019-02-25T21:13:07.034Z,27.20
2019-02-25T21:15:47.313Z,28.07
2019-02-25T21:18:15.764Z,29.07
2019-02-25T21:20:51.518Z,26.73
2019-02-25T21:23:32.979Z,27.43
2019-02-25T21:26:04.333Z,31.47
2019-02-25T21:28:35.889Z,27.63
2019-02-25T21:31:07.192Z,25.60
2019-02-25T21:33:45.193Z,26.60
2019-02-25T21:36:16.346Z,27.10
2019-02-25T21:38:58.463Z,24.47
2019-02-25T21:41:27.253Z,26.67
2019-02-25T21:43:59.087Z,30.23
2019-02-25T21:46:34.263Z,23.60
2019-02-25T21:49:06.609Z,25.30
2019-02-25T21:51:47.868Z,21.67
2019-02-25T21:54:16.035Z,23.77
2019-02-25T21:56:54.927Z,25.63
2019-02-25T21:59:32.305Z,25.40
2019-02-25T22:02:04.494Z,23.43
2019-02-25T22:04:51.831Z,24.10
2019-02-25T22:07:27.208Z,22.50
2019-02-25T22:09:57.874Z,25.70
2019-02-25T22:12:32.746Z,23.90
2019-02-25T22:14:59.111Z,25.67
2019-02-25T22:17:34.077Z,25.07
2019-02-25T22:20:04.855Z,24.67
2019-02-25T22:22:37.522Z,22.17
2019-02-25T22:25:13.514Z,22.23
2019-02-25T22:27:48.837Z,23.10
2019-02-25T22:30:20.389Z,23.93
2019-02-25T22:32:51.504Z,23.67
2019-02-25T22:35:20.229Z,21.90
2019-02-25T22:37:52.016Z,22.77
2019-02-25T22:40:24.937Z,22.47
2019-02-25T22:42:56.800Z,21.93
2019-02-25T22:45:35.929Z,21.00
2019-02-25T22:48:04.758Z,23.93
2019-02-25T22:50:33.914Z,22.43
2019-02-25T22:53:11.289Z,23.93
2019-02-25T22:55:44.367Z,24.27
2019-02-25T22:58:12.746Z,21.70
2019-02-25T23:00:51.892Z,21.90
2019-02-25T23:03:40.956Z,21.83
2019-02-25T23:06:11.237Z,30.20
2019-02-25T23:08:46.386Z,21.27
2019-02-25T23:11:14.277Z,27.13
2019-02-25T23:13:43.220Z,21.40
2019-02-25T23:16:13.297Z,22.13
2019-02-25T23:18:42.925Z,22.10
2019-02-25T23:21:12.068Z,24.60
2019-02-25T23:24:01.353Z,21.80
2019-02-25T23:26:52.979Z,21.97
2019-02-25T23:32:43.221Z,22.17
2019-02-25T23:35:29.541Z,22.07
2019-02-25T23:38:10.513Z,21.30
2019-02-25T23:40:40.259Z,27.50
2019-02-25T23:43:25.410Z,22.40
2019-02-25T23:45:53.481Z,21.93
2019-02-25T23:48:32.903Z,22.27
2019-02-25T23:51:11.951Z,22.80
2019-02-25T23:53:50.867Z,24.57
2019-02-25T23:56:31.392Z,22.30
2019-02-25T23:59:02.741Z,25.17
